Time;durP1;ratioP1;P1;durP2;ratioP2;P2;SDS_P1;SDS_P2;PMS_P1;PMS_P2;Temp;Humidity;BMP_temperature;BMP_pressure;BME280_temperature;BME280_humidity;BME280_pressure;Samples;Min_cycle;Max_cycle;Signal;HPM_P1;HPM_P2
2023/03/03 00:00:34;;;;;;;28.83;15.30;;;0.70;99.90;;;-141.84;83.32;18862.81;5069951;28;20689;-56
2023/03/03 00:03:08;;;;;;;36.40;18.73;;;0.60;99.90;;;-141.84;83.54;18854.69;5069649;28;20197;-58
2023/03/03 00:05:37;;;;;;;33.40;15.93;;;0.60;99.90;;;-141.84;83.52;18848.59;5070305;28;20595;-57
2023/03/03 00:08:07;;;;;;;30.83;16.17;;;0.60;99.90;;;-141.84;83.90;18875.00;5069486;28;20230;-58
2023/03/03 00:10:35;;;;;;;31.47;16.33;;;0.60;99.90;;;-141.84;84.39;18933.94;5069753;28;20244;-57
2023/03/03 00:13:03;;;;;;;29.80;16.33;;;0.70;99.90;;;-141.84;84.58;18881.09;5069466;28;20220;-59
2023/03/03 00:15:32;;;;;;;29.70;16.27;;;0.60;99.90;;;-141.84;84.69;18879.06;5069649;28;20233;-58
2023/03/03 00:18:00;;;;;;;31.87;16.43;;;0.70;99.90;;;-141.84;84.16;18858.75;5062040;28;20199;-57
2023/03/03 00:20:36;;;;;;;30.80;15.70;;;0.70;99.90;;;-141.84;84.76;18875.00;5049994;28;20609;-58
2023/03/03 00:23:22;;;;;;;27.47;14.33;;;0.60;99.90;;;-141.84;84.83;18846.56;5049455;28;20229;-59
2023/03/03 00:25:53;;;;;;;29.57;13.90;;;0.70;99.90;;;-141.84;84.51;18877.03;5049175;28;20233;-58
2023/03/03 00:28:29;;;;;;;27.30;14.53;;;0.70;99.90;;;-141.84;83.50;18895.31;5048815;28;20231;-56
2023/03/03 00:31:00;;;;;;;21.67;12.67;;;0.70;99.90;;;-141.84;84.15;18870.94;5049474;28;20229;-59
2023/03/03 00:33:33;;;;;;;25.10;12.50;;;0.70;99.90;;;-141.84;84.20;18862.81;5049435;28;20237;-57
2023/03/03 00:36:27;;;;;;;24.37;13.13;;;0.60;99.90;;;-141.84;84.93;18860.78;5049362;28;20683;-59
2023/03/03 00:39:17;;;;;;;27.07;13.37;;;0.60;99.90;;;-141.84;85.06;18883.13;5049366;28;20203;-58
2023/03/03 00:41:45;;;;;;;25.50;14.03;;;0.60;99.90;;;-141.84;85.01;18850.63;5049375;28;20233;-58
2023/03/03 00:44:40;;;;;;;25.00;14.17;;;0.60;99.90;;;-141.84;84.57;18840.47;5049791;28;20703;-59
2023/03/03 00:47:31;;;;;;;23.07;13.43;;;0.60;99.90;;;-141.84;83.47;18872.97;5059807;28;20671;-58
2023/03/03 00:50:31;;;;;;;21.50;12.20;;;0.60;99.90;;;-141.84;82.11;18834.38;5069399;28;20225;-58
2023/03/03 00:53:04;;;;;;;25.53;12.77;;;0.60;99.90;;;-141.84;82.81;18830.31;5065939;28;20232;-60
2023/03/03 00:55:35;;;;;;;26.00;13.30;;;0.50;99.90;;;-141.84;83.77;18850.63;5068994;28;20689;-56
2023/03/03 00:58:04;;;;;;;23.60;12.43;;;0.50;99.90;;;-141.84;83.47;18854.69;5082600;28;20225;-58
2023/03/03 01:00:33;;;;;;;24.67;13.93;;;0.50;99.90;;;-141.84;83.52;18858.75;5089417;28;20262;-59
2023/03/03 01:03:06;;;;;;;22.87;13.30;;;0.50;99.90;;;-141.84;83.39;18879.06;5089605;28;20254;-59
2023/03/03 01:05:34;;;;;;;23.47;12.57;;;0.60;99.90;;;-141.84;83.44;18858.75;5089834;28;20193;-58
2023/03/03 01:08:03;;;;;;;21.83;12.33;;;0.60;99.90;;;-141.84;83.20;18866.88;5089231;28;20240;-59
2023/03/03 01:10:39;;;;;;;22.73;12.67;;;0.60;99.90;;;-141.84;83.18;18866.88;5089239;28;20228;-58
2023/03/03 01:13:08;;;;;;;22.47;11.87;;;0.50;99.90;;;-141.84;83.69;18844.53;5089398;28;20564;-57
2023/03/03 01:15:37;;;;;;;22.37;12.60;;;0.50;99.90;;;-141.84;83.11;18883.13;5089205;28;20217;-58
2023/03/03 01:18:07;;;;;;;31.07;12.73;;;0.60;99.90;;;-141.84;83.12;18858.75;5089161;28;20229;-59
2023/03/03 01:20:35;;;;;;;43.10;13.70;;;0.50;99.90;;;-141.84;82.28;18870.94;5073594;28;20226;-59
2023/03/03 01:23:04;;;;;;;30.17;12.70;;;0.60;99.90;;;-141.84;82.74;18854.69;5071361;28;20806;-58
2023/03/03 01:25:34;;;;;;;21.87;12.07;;;0.40;99.90;;;-141.84;83.33;18822.19;5072289;28;20228;-58
2023/03/03 01:28:02;;;;;;;22.97;12.53;;;0.30;99.90;;;-141.84;83.64;18840.47;5072269;28;20712;-56
2023/03/03 01:30:31;;;;;;;21.50;12.37;;;0.40;99.90;;;-141.84;83.87;18856.72;5072063;28;20639;-58
2023/03/03 01:32:59;;;;;;;24.40;12.67;;;0.40;99.90;;;-141.84;84.68;18826.25;5071918;28;20580;-57
2023/03/03 01:35:28;;;;;;;20.57;11.33;;;0.30;99.90;;;-141.84;84.46;18858.75;5072903;28;20201;-56
2023/03/03 01:37:58;;;;;;;22.23;12.63;;;0.40;99.90;;;-141.84;84.13;18822.19;5072230;28;20741;-58
2023/03/03 01:40:29;;;;;;;22.33;12.20;;;0.40;99.90;;;-141.84;83.36;18838.44;5071827;28;20743;-58
2023/03/03 01:43:01;;;;;;;23.07;11.00;;;0.40;99.90;;;-141.84;83.73;18842.50;5072219;28;20233;-58
2023/03/03 01:45:38;;;;;;;21.23;12.07;;;0.30;99.90;;;-141.84;84.24;18830.31;5072365;28;20228;-57
2023/03/03 01:48:14;;;;;;;20.83;11.37;;;0.30;99.90;;;-141.84;84.89;18858.75;5072111;28;20239;-59
2023/03/03 01:50:50;;;;;;;18.83;11.17;;;0.30;99.90;;;-141.84;84.99;18824.22;5072670;28;20186;-58
2023/03/03 01:53:22;;;;;;;18.87;11.97;;;0.30;99.90;;;-141.84;82.87;18830.31;5072519;28;20226;-58
2023/03/03 01:55:53;;;;;;;20.03;11.63;;;0.40;99.90;;;-141.84;82.89;18805.91;5056664;28;20227;-58
2023/03/03 01:58:30;;;;;;;30.07;11.67;;;0.30;99.90;;;-141.84;83.36;18820.16;5052151;28;20226;-58
2023/03/03 02:01:03;;;;;;;17.27;10.50;;;0.20;99.90;;;-141.84;84.14;18852.66;5051073;28;20236;-58
2023/03/03 02:03:33;;;;;;;21.20;10.97;;;0.10;99.90;;;-141.84;83.14;18828.28;5051850;28;20214;-57
2023/03/03 02:06:08;;;;;;;20.13;11.17;;;0.30;99.90;;;-141.84;82.35;18846.56;5051912;28;20191;-59
2023/03/03 02:08:46;;;;;;;20.30;11.00;;;0.30;99.90;;;-141.84;82.65;18838.44;5052361;28;20220;-57
2023/03/03 02:11:15;;;;;;;22.83;11.50;;;0.20;99.90;;;-141.84;83.06;18838.44;5052210;28;20216;-58
2023/03/03 02:13:44;;;;;;;27.00;11.70;;;0.10;99.90;;;-141.84;83.66;18830.31;5051738;28;20257;-59
2023/03/03 02:16:12;;;;;;;20.53;10.87;;;0.10;99.90;;;-141.84;83.71;18840.47;5048508;28;20230;-59
2023/03/03 02:18:41;;;;;;;18.97;10.70;;;0.00;99.90;;;-141.84;83.59;18842.50;5067652;28;20251;-58
2023/03/03 02:21:14;;;;;;;20.90;11.33;;;0.10;99.90;;;-141.84;83.13;18870.94;5071516;28;20230;-58
2023/03/03 02:23:53;;;;;;;23.57;12.07;;;0.10;99.90;;;-141.84;83.52;18828.28;5072220;28;20186;-58
2023/03/03 02:26:26;;;;;;;17.40;10.60;;;0.20;99.90;;;-141.84;83.08;18848.59;5072035;28;20214;-58
2023/03/03 02:28:55;;;;;;;20.53;11.80;;;0.30;99.90;;;-141.84;83.61;18850.63;5071689;28;20230;-59
2023/03/03 02:31:26;;;;;;;22.07;11.33;;;0.30;99.90;;;-141.84;83.62;18846.56;5070955;28;20226;-59
2023/03/03 02:33:55;;;;;;;19.40;10.10;;;0.20;99.90;;;-141.84;83.08;18856.72;5070203;28;20249;-58
2023/03/03 02:36:28;;;;;;;18.10;10.23;;;0.30;99.90;;;-141.84;83.65;18789.66;5071327;28;20222;-57
2023/03/03 02:39:05;;;;;;;21.47;9.07;;;0.30;99.90;;;-141.84;84.25;18840.47;5071271;28;20220;-58
2023/03/03 02:41:43;;;;;;;15.33;9.20;;;0.20;99.90;;;-141.84;84.09;18844.53;5071692;28;20190;-58
2023/03/03 02:44:14;;;;;;;13.97;8.30;;;0.20;99.90;;;-141.84;83.01;18842.50;5071456;28;20203;-58
2023/03/03 02:46:45;;;;;;;12.77;7.97;;;0.30;99.90;;;-141.84;82.67;18834.38;5070636;28;20233;-59
2023/03/03 02:49:16;;;;;;;18.93;8.40;;;0.30;99.90;;;-141.84;82.97;18830.31;5071097;28;20231;-57
2023/03/03 02:51:45;;;;;;;13.43;8.20;;;0.20;99.90;;;-141.84;82.99;18852.66;5071049;28;20609;-59
2023/03/03 02:54:16;;;;;;;13.10;7.97;;;0.20;99.90;;;-141.84;83.43;18830.31;5070828;28;20597;-56
2023/03/03 02:56:47;;;;;;;11.10;7.47;;;0.10;99.90;;;-141.84;83.54;18812.00;5071035;28;20209;-59
2023/03/03 02:59:15;;;;;;;22.13;8.63;;;0.10;99.90;;;-141.84;83.63;18805.91;5071635;28;20180;-58
2023/03/03 03:01:44;;;;;;;16.27;8.37;;;0.00;99.90;;;-141.84;83.72;18832.34;5070423;28;20600;-58
2023/03/03 03:04:16;;;;;;;14.47;8.30;;;0.00;99.90;;;-141.84;84.42;18826.25;5070441;28;20603;-58
2023/03/03 03:06:45;;;;;;;12.90;8.00;;;0.00;99.90;;;-141.84;84.60;18832.34;5070685;28;20222;-58
2023/03/03 03:09:15;;;;;;;14.20;8.80;;;0.10;99.90;;;-141.84;85.26;18787.63;5070563;28;20225;-57
2023/03/03 03:11:44;;;;;;;13.87;8.43;;;0.00;99.90;;;-141.84;85.50;18809.97;5071169;28;20192;-58
2023/03/03 03:14:14;;;;;;;13.93;8.77;;;0.10;99.90;;;-141.84;85.66;18822.19;5070587;28;20218;-59
2023/03/03 03:16:43;;;;;;;12.77;8.33;;;0.10;99.90;;;-141.84;84.42;18832.34;5070015;28;20240;-59
2023/03/03 03:19:11;;;;;;;12.13;7.83;;;0.20;99.90;;;-141.84;84.70;18814.03;5070140;28;20725;-58
2023/03/03 03:21:39;;;;;;;14.47;7.87;;;0.20;99.90;;;-141.84;83.11;18834.38;5070576;28;20220;-57
2023/03/03 03:24:08;;;;;;;13.67;8.00;;;0.20;99.90;;;-141.84;82.24;18822.19;5070154;28;20761;-60
2023/03/03 03:26:36;;;;;;;16.80;7.93;;;0.20;99.90;;;-141.84;82.96;18824.22;5070617;28;20206;-59
2023/03/03 03:29:05;;;;;;;17.30;8.10;;;0.10;99.90;;;-141.84;83.45;18818.09;5069991;28;20232;-58
2023/03/03 03:31:35;;;;;;;12.27;7.33;;;0.00;99.90;;;-141.84;83.54;18809.97;5069883;28;20228;-58
2023/03/03 03:34:03;;;;;;;11.57;7.60;;;-0.10;99.90;;;-141.84;83.60;18812.00;5070104;28;20230;-58
2023/03/03 03:36:31;;;;;;;14.60;8.20;;;0.00;99.90;;;-141.84;83.78;18844.53;5070021;28;20232;-58
2023/03/03 03:39:01;;;;;;;13.50;7.90;;;0.10;99.90;;;-141.84;83.90;18844.53;5069753;28;20622;-57
2023/03/03 03:41:29;;;;;;;12.80;8.00;;;0.10;99.90;;;-141.84;83.81;18834.38;5070602;28;20264;-59
2023/03/03 03:43:57;;;;;;;12.40;7.40;;;0.10;99.90;;;-141.84;83.41;18840.47;5069890;28;20228;-57
2023/03/03 03:46:26;;;;;;;11.03;6.93;;;0.20;99.90;;;-141.84;83.41;18818.09;5069895;28;20224;-58
2023/03/03 03:48:55;;;;;;;10.10;6.53;;;0.20;99.90;;;-141.84;83.18;18840.47;5070133;28;20237;-58
2023/03/03 03:51:23;;;;;;;10.33;6.77;;;0.20;99.90;;;-141.84;83.75;18844.53;5069768;28;20232;-58
2023/03/03 03:53:51;;;;;;;8.93;6.13;;;0.20;99.90;;;-141.84;83.38;18789.66;5069765;28;20207;-58
2023/03/03 03:56:19;;;;;;;10.10;6.97;;;0.30;99.90;;;-141.84;83.99;18877.03;5070028;28;20206;-58
2023/03/03 03:58:48;;;;;;;10.33;6.60;;;0.30;99.90;;;-141.84;84.64;18814.03;5069774;28;20260;-56
2023/03/03 04:01:16;;;;;;;10.33;6.90;;;0.30;99.90;;;-141.84;84.83;18832.34;5069828;28;20722;-58
2023/03/03 04:03:44;;;;;;;9.17;6.83;;;0.30;99.90;;;-141.84;84.83;18814.03;5069479;28;20738;-58
2023/03/03 04:06:14;;;;;;;11.80;6.77;;;0.30;99.90;;;-141.84;84.14;18820.16;5069846;28;20228;-58
2023/03/03 04:08:42;;;;;;;10.97;6.50;;;0.30;99.90;;;-141.84;84.26;18838.44;5070031;28;20695;-57
2023/03/03 04:11:10;;;;;;;12.63;7.57;;;0.30;99.90;;;-141.84;84.61;18789.66;5069753;28;20252;-57
2023/03/03 04:13:38;;;;;;;10.40;7.00;;;0.30;99.90;;;-141.84;84.78;18799.81;5069411;28;20296;-57
2023/03/03 04:16:06;;;;;;;10.03;6.20;;;0.20;99.90;;;-141.84;84.39;18830.31;5069592;28;20229;-59
2023/03/03 04:18:35;;;;;;;10.27;6.47;;;0.30;99.90;;;-141.84;84.21;18830.31;5069349;28;20223;-58
2023/03/03 04:21:03;;;;;;;10.17;6.97;;;0.30;99.90;;;-141.84;84.21;18838.44;5069281;28;20238;-58
2023/03/03 04:23:33;;;;;;;8.83;5.67;;;0.30;99.90;;;-141.84;84.07;18816.06;5070113;28;20204;-59
2023/03/03 04:26:01;;;;;;;10.53;6.63;;;0.30;99.90;;;-141.84;83.11;18830.31;5069357;28;20229;-58
2023/03/03 04:28:29;;;;;;;10.23;6.03;;;0.30;99.90;;;-141.84;82.97;18824.22;5069143;28;20231;-57
2023/03/03 04:30:57;;;;;;;9.50;5.53;;;0.30;99.90;;;-141.84;83.35;18842.50;5069253;28;20613;-58
2023/03/03 04:33:26;;;;;;;10.17;6.17;;;0.30;99.90;;;-141.84;83.64;18824.22;5069217;28;20220;-58
2023/03/03 04:35:54;;;;;;;11.60;6.53;;;0.20;99.90;;;-141.84;83.34;18828.28;5069578;28;20234;-59
2023/03/03 04:38:22;;;;;;;11.00;6.83;;;0.30;99.90;;;-141.84;82.72;18836.41;5069924;28;20196;-58
2023/03/03 04:40:51;;;;;;;10.07;6.27;;;0.30;99.90;;;-141.84;83.17;18828.28;5069086;28;20229;-59
2023/03/03 04:43:20;;;;;;;9.77;6.17;;;0.30;99.90;;;-141.84;83.66;18820.16;5069063;28;20231;-58
2023/03/03 04:45:48;;;;;;;9.57;6.17;;;0.30;99.90;;;-141.84;83.02;18793.72;5069222;28;20229;-58
2023/03/03 04:48:17;;;;;;;8.60;5.90;;;0.40;99.90;;;-141.84;82.86;18838.44;5069218;28;20224;-59
2023/03/03 04:50:45;;;;;;;9.50;5.87;;;0.30;99.90;;;-141.84;82.51;18793.72;5069259;28;20223;-58
2023/03/03 04:53:13;;;;;;;10.00;6.13;;;0.40;99.90;;;-141.84;83.27;18842.50;5069704;28;20210;-59
2023/03/03 04:55:42;;;;;;;9.33;5.50;;;0.30;99.90;;;-141.84;83.39;18801.84;5069160;28;20710;-59
2023/03/03 04:58:11;;;;;;;10.37;6.60;;;0.40;99.90;;;-141.84;83.22;18830.31;5071579;28;20321;-58
2023/03/03 05:00:39;;;;;;;8.83;5.80;;;0.30;99.90;;;-141.84;83.82;18838.44;5072798;28;20723;-59
2023/03/03 05:03:10;;;;;;;9.70;6.03;;;0.20;99.90;;;-141.84;84.38;18822.19;5072874;28;20255;-59
2023/03/03 05:05:38;;;;;;;8.43;5.90;;;0.30;99.90;;;-141.84;84.03;18785.59;5073578;28;20205;-59
2023/03/03 05:08:07;;;;;;;7.97;5.27;;;0.30;99.90;;;-141.84;84.13;18809.97;5072840;28;20593;-58
2023/03/03 05:10:35;;;;;;;8.80;5.70;;;0.20;99.90;;;-141.84;83.82;18844.53;5072473;28;20243;-58
2023/03/03 05:13:04;;;;;;;9.27;5.73;;;0.30;99.90;;;-141.84;83.11;18818.09;5072682;28;20237;-57
2023/03/03 05:15:34;;;;;;;8.70;5.47;;;0.40;99.90;;;-141.84;81.31;18864.84;5072644;28;20254;-58
2023/03/03 05:18:02;;;;;;;8.93;5.73;;;0.50;99.90;;;-141.84;82.02;18814.03;5072863;28;20203;-59
2023/03/03 05:20:30;;;;;;;9.80;5.97;;;0.40;99.90;;;-141.84;82.42;18848.59;5073024;28;20253;-59
2023/03/03 05:23:00;;;;;;;8.50;5.50;;;0.30;99.90;;;-141.84;82.97;18814.03;5072451;28;20245;-59
2023/03/03 05:25:28;;;;;;;8.53;5.67;;;0.30;99.90;;;-141.84;83.07;18830.31;5072414;28;20784;-60
2023/03/03 05:27:56;;;;;;;9.10;6.00;;;0.30;99.90;;;-141.84;83.11;18809.97;5072290;28;20230;-59
2023/03/03 05:30:24;;;;;;;9.47;6.07;;;0.30;99.90;;;-141.84;81.91;18846.56;5072154;28;20230;-57
2023/03/03 05:32:54;;;;;;;8.73;5.63;;;0.40;99.90;;;-141.84;81.43;18858.75;5072377;28;20202;-59
2023/03/03 05:35:22;;;;;;;8.37;5.43;;;0.40;99.90;;;-141.84;81.62;18818.09;5072678;28;20218;-60
2023/03/03 05:37:51;;;;;;;9.93;6.00;;;0.40;99.90;;;-141.84;82.12;18846.56;5072004;28;20716;-59
2023/03/03 05:40:19;;;;;;;9.73;5.53;;;0.40;99.90;;;-141.84;81.79;18832.34;5072019;28;20246;-59
2023/03/03 05:42:47;;;;;;;9.60;5.77;;;0.30;99.90;;;-141.84;81.89;18842.50;5072319;28;20221;-58
2023/03/03 05:45:19;;;;;;;10.30;5.97;;;0.30;99.90;;;-141.84;82.72;18848.59;5072150;28;20700;-60
2023/03/03 05:47:47;;;;;;;8.20;5.27;;;0.30;99.90;;;-141.84;82.58;18832.34;5072343;28;20206;-59
2023/03/03 05:50:17;;;;;;;8.23;5.63;;;0.40;99.90;;;-141.84;83.09;18793.72;5072586;28;20196;-59
2023/03/03 05:52:48;;;;;;;9.00;5.97;;;0.30;99.90;;;-141.84;83.11;18816.06;5072358;28;20228;-59
2023/03/03 05:55:17;;;;;;;8.90;5.93;;;0.30;99.90;;;-141.84;83.16;18824.22;5071708;28;20220;-60
2023/03/03 05:57:46;;;;;;;10.90;6.47;;;0.30;99.90;;;-141.84;83.51;18834.38;5071876;28;20223;-58
2023/03/03 06:00:16;;;;;;;10.03;5.97;;;0.40;99.90;;;-141.84;82.77;18842.50;5071691;28;20232;-57
2023/03/03 06:02:44;;;;;;;11.03;6.43;;;0.40;99.90;;;-141.84;82.73;18838.44;5071856;28;20184;-61
2023/03/03 06:05:13;;;;;;;10.13;6.33;;;0.40;99.90;;;-141.84;82.50;18828.28;5072111;28;20296;-59
2023/03/03 06:07:42;;;;;;;10.23;6.93;;;0.40;99.90;;;-141.84;83.05;18846.56;5071542;28;20233;-59
2023/03/03 06:10:12;;;;;;;10.13;6.13;;;0.40;99.90;;;-141.84;82.63;18828.28;5071260;28;20232;-57
2023/03/03 06:12:40;;;;;;;10.60;6.07;;;0.50;99.90;;;-141.84;82.16;18777.47;5071462;28;20227;-60
2023/03/03 06:15:10;;;;;;;10.50;6.33;;;0.40;99.90;;;-141.84;81.46;18842.50;5071738;28;20299;-60
2023/03/03 06:17:39;;;;;;;10.83;5.97;;;0.40;99.90;;;-141.84;80.08;18824.22;5071317;28;20211;-59
2023/03/03 06:20:09;;;;;;;8.77;5.80;;;0.40;99.90;;;-141.84;80.46;18824.22;5070965;28;20623;-58
2023/03/03 06:22:37;;;;;;;10.67;6.13;;;0.40;99.90;;;-141.84;80.44;18862.81;5071051;28;20231;-60
2023/03/03 06:25:08;;;;;;;9.53;6.10;;;0.40;99.90;;;-141.84;81.19;18787.63;5071510;28;20235;-59
2023/03/03 06:27:36;;;;;;;8.93;5.70;;;0.30;99.90;;;-141.84;81.73;18818.09;5071402;28;20222;-58
2023/03/03 06:30:06;;;;;;;9.90;6.50;;;0.30;99.90;;;-141.84;82.13;18828.28;5071152;28;20579;-60
2023/03/03 06:32:35;;;;;;;10.43;6.90;;;0.30;99.90;;;-141.84;82.13;18807.94;5071457;28;20220;-60
2023/03/03 06:35:03;;;;;;;9.90;6.60;;;0.30;99.90;;;-141.84;82.18;18824.22;5071188;28;20603;-59
2023/03/03 06:37:31;;;;;;;10.53;6.70;;;0.20;99.90;;;-141.84;82.48;18818.09;5071092;28;20231;-59
2023/03/03 06:40:00;;;;;;;9.63;6.13;;;0.20;99.90;;;-141.84;82.21;18805.91;5070979;28;20234;-59
2023/03/03 06:42:29;;;;;;;9.67;6.50;;;0.20;99.90;;;-141.84;82.23;18826.25;5070932;28;20234;-57
2023/03/03 06:44:57;;;;;;;9.57;6.27;;;0.20;99.90;;;-141.84;82.14;18824.22;5070656;28;20207;-56
2023/03/03 06:47:25;;;;;;;10.47;5.87;;;0.20;99.90;;;-141.84;81.17;18830.31;5071142;28;20296;-57
2023/03/03 06:49:54;;;;;;;11.90;6.63;;;0.30;99.90;;;-141.84;81.34;18814.03;5070665;28;20231;-57
2023/03/03 06:52:26;;;;;;;12.60;7.27;;;0.30;99.90;;;-141.84;81.27;18836.41;5070747;28;20233;-59
2023/03/03 06:54:58;;;;;;;8.90;5.93;;;0.30;99.90;;;-141.84;80.91;18818.09;5070348;28;20725;-58
2023/03/03 06:57:30;;;;;;;9.53;6.10;;;0.30;99.90;;;-141.84;79.86;18856.72;5070558;28;20730;-58
2023/03/03 07:00:15;;;;;;;9.47;6.63;;;0.30;99.90;;;-141.84;80.39;18785.59;5070697;28;20186;-59
2023/03/03 07:02:44;;;;;;;10.03;6.50;;;0.30;99.90;;;-141.84;78.10;18850.63;5071178;28;20191;-56
2023/03/03 07:05:17;;;;;;;9.37;6.13;;;0.40;99.90;;;-141.84;78.15;18866.88;5070870;28;20217;-59
2023/03/03 07:07:45;;;;;;;9.73;6.03;;;0.30;99.90;;;-141.84;78.94;18814.03;5070705;28;20233;-58
2023/03/03 07:10:24;;;;;;;11.93;6.43;;;0.40;99.90;;;-141.84;77.74;18822.19;5070384;28;20231;-58
2023/03/03 07:12:54;;;;;;;11.03;6.77;;;0.40;99.90;;;-141.84;78.31;18850.63;5070320;28;20228;-58
2023/03/03 07:15:28;;;;;;;10.70;6.90;;;0.40;99.90;;;-141.84;77.29;18832.34;5070425;28;20218;-58
2023/03/03 07:17:58;;;;;;;10.77;6.67;;;0.40;99.90;;;-141.84;77.82;18856.72;5070897;28;20203;-59
2023/03/03 07:20:37;;;;;;;10.43;6.10;;;0.50;99.90;;;-141.84;78.03;18850.63;5070085;28;20256;-59
2023/03/03 07:23:21;;;;;;;11.50;6.83;;;0.60;99.90;;;-141.84;77.43;18887.19;5070680;28;20228;-60
2023/03/03 07:25:49;;;;;;;10.10;6.30;;;0.60;99.90;;;-141.84;77.58;18840.47;5070225;28;20240;-60
2023/03/03 07:28:24;;;;;;;11.23;6.70;;;0.50;99.90;;;-141.84;77.96;18887.19;5070411;28;20593;-58
2023/03/03 07:30:54;;;;;;;10.13;6.67;;;0.60;99.90;;;-141.84;77.71;18838.44;5069911;28;20232;-60
2023/03/03 07:33:28;;;;;;;10.70;5.83;;;0.70;99.90;;;-141.84;75.61;18879.06;5069736;28;20562;-58
2023/03/03 07:35:59;;;;;;;10.00;6.40;;;0.70;99.90;;;-141.84;75.23;18868.91;5070085;28;20553;-57
2023/03/03 07:38:37;;;;;;;8.03;5.63;;;0.70;99.90;;;-141.84;75.09;18883.13;5070397;28;20270;-58
2023/03/03 07:41:14;;;;;;;9.20;5.60;;;0.70;99.90;;;-141.84;74.52;18885.16;5069622;28;20585;-58
2023/03/03 07:43:53;;;;;;;10.33;6.10;;;0.70;99.90;;;-141.84;74.26;18879.06;5069915;28;20600;-58
2023/03/03 07:46:30;;;;;;;9.67;6.80;;;0.80;99.90;;;-141.84;73.34;18870.94;5069745;28;20242;-59
2023/03/03 07:49:00;;;;;;;8.97;5.90;;;0.80;99.90;;;-141.84;73.93;18877.03;5069757;28;20226;-57
2023/03/03 07:51:38;;;;;;;8.73;5.70;;;0.90;99.90;;;-141.84;74.75;18891.25;5069898;28;20228;-59
2023/03/03 07:54:29;;;;;;;9.43;6.13;;;0.90;99.90;;;-141.84;74.51;18895.31;5070237;28;20224;-59
2023/03/03 07:57:07;;;;;;;10.20;6.53;;;0.90;99.90;;;-141.84;74.30;18901.41;5069545;28;20191;-59
2023/03/03 07:59:41;;;;;;;11.13;6.73;;;1.00;99.90;;;-141.84;73.77;18911.56;5070380;28;20185;-57
2023/03/03 08:02:37;;;;;;;10.60;6.60;;;0.90;99.90;;;-141.84;74.38;18887.19;5069981;28;20208;-57
2023/03/03 08:05:36;;;;;;;11.47;7.03;;;1.00;99.90;;;-141.84;74.93;18923.78;5069424;28;20243;-58
2023/03/03 08:08:28;;;;;;;11.93;6.57;;;1.10;99.90;;;-141.84;74.13;18935.97;5013971;28;20235;-60
2023/03/03 08:10:59;;;;;;;9.97;6.47;;;1.10;99.90;;;-141.84;72.71;18909.53;5069442;28;20220;-58
2023/03/03 08:13:36;;;;;;;10.00;6.53;;;1.30;99.90;;;-141.84;72.41;18909.53;5069386;28;20248;-59
2023/03/03 08:16:35;;;;;;;10.20;6.67;;;1.30;99.90;;;-141.84;72.74;18923.78;5069166;28;20227;-58
2023/03/03 08:19:06;;;;;;;8.90;5.90;;;1.40;99.90;;;-141.84;72.11;18921.75;5069123;28;20241;-57
2023/03/03 08:21:36;;;;;;;9.47;5.70;;;1.40;99.90;;;-141.84;70.36;18944.09;5069239;28;20590;-58
2023/03/03 08:24:05;;;;;;;7.93;5.80;;;1.40;99.90;;;-141.84;69.07;18935.97;5069562;28;20277;-58
2023/03/03 08:26:33;;;;;;;9.40;6.00;;;1.40;99.90;;;-141.84;69.78;18946.13;5069872;28;20204;-57
2023/03/03 08:29:02;;;;;;;10.90;6.27;;;1.50;99.90;;;-141.84;69.37;18942.06;5069533;28;20471;-59
2023/03/03 08:31:31;;;;;;;10.20;6.23;;;1.60;99.90;;;-141.84;68.78;18954.25;5033576;28;20571;-57
2023/03/03 08:34:09;;;;;;;11.63;7.27;;;1.50;99.90;;;-141.84;69.52;18935.97;5043300;28;20223;-58
2023/03/03 08:36:37;;;;;;;12.47;7.60;;;1.60;99.90;;;-141.84;70.00;18917.66;5053104;28;20216;-58
2023/03/03 08:39:06;;;;;;;12.10;7.13;;;1.60;99.90;;;-141.84;70.50;18950.19;5053112;28;20228;-57
2023/03/03 08:41:34;;;;;;;11.83;7.57;;;1.60;99.90;;;-141.84;70.20;18942.06;5053153;28;20704;-56
2023/03/03 08:44:02;;;;;;;12.27;8.17;;;1.60;99.90;;;-141.84;70.52;18946.13;5052724;28;20231;-57
2023/03/03 08:46:32;;;;;;;13.60;8.20;;;1.60;99.90;;;-141.84;70.18;18942.06;5047490;28;20237;-53
2023/03/03 08:49:00;;;;;;;11.10;7.20;;;1.60;99.90;;;-141.84;70.33;18956.28;5073084;28;20231;-57
2023/03/03 08:51:28;;;;;;;12.07;8.20;;;1.70;99.90;;;-141.84;70.91;18952.22;5073070;28;20235;-56
2023/03/03 08:53:56;;;;;;;9.83;6.43;;;1.70;99.90;;;-141.84;70.72;18944.09;5073079;28;20222;-54
2023/03/03 08:56:24;;;;;;;10.53;6.83;;;1.80;99.90;;;-141.84;71.37;18964.41;5073187;28;20211;-56
2023/03/03 08:58:53;;;;;;;10.47;6.70;;;1.90;99.90;;;-141.84;70.92;18980.66;5072560;28;20232;-56
2023/03/03 09:01:31;;;;;;;10.20;6.50;;;1.90;99.90;;;-141.84;68.96;18988.78;5072235;28;20294;-54
2023/03/03 09:04:00;;;;;;;10.53;6.70;;;2.10;99.90;;;-141.84;68.53;18982.69;5072018;28;20224;-55
2023/03/03 09:06:28;;;;;;;9.60;6.50;;;2.00;99.90;;;-141.84;68.41;18988.78;5072349;28;20227;-58
2023/03/03 09:08:56;;;;;;;11.23;7.27;;;2.00;99.90;;;-141.84;69.48;18984.72;5072177;28;20207;-59
2023/03/03 09:11:28;;;;;;;11.63;7.57;;;1.90;99.90;;;-141.84;69.09;18938.00;5073024;28;20197;-58
2023/03/03 09:14:09;;;;;;;13.30;7.87;;;2.00;99.90;;;-141.84;70.04;18950.19;5072255;28;20221;-53
2023/03/03 09:16:47;;;;;;;12.17;7.53;;;1.90;99.90;;;-141.84;69.50;18972.53;5072133;28;20233;-56
2023/03/03 09:19:28;;;;;;;12.17;8.07;;;1.90;99.90;;;-141.84;69.49;18978.63;5071935;28;20240;-55
2023/03/03 09:22:02;;;;;;;13.37;8.27;;;1.90;99.90;;;-141.84;69.53;18956.28;5072136;28;20770;-56
2023/03/03 09:24:36;;;;;;;12.97;8.30;;;2.10;99.90;;;-141.84;70.39;18946.13;5072389;28;20219;-55
2023/03/03 09:27:22;;;;;;;12.30;8.17;;;2.10;99.90;;;-141.84;70.69;18972.53;5071952;28;20189;-55
2023/03/03 09:29:50;;;;;;;11.60;7.40;;;2.00;99.90;;;-141.84;70.86;18968.47;5071812;28;20660;-59
2023/03/03 09:32:34;;;;;;;12.20;7.37;;;2.10;99.90;;;-141.84;68.98;19025.38;5072530;28;20409;-57
2023/03/03 09:35:37;;;;;;;11.13;6.80;;;2.20;99.90;;;-141.84;68.29;19005.03;5071853;28;20229;-56
2023/03/03 09:38:25;;;;;;;12.80;7.63;;;2.20;99.90;;;-141.84;69.22;19003.00;5072179;28;20235;-54
2023/03/03 09:41:36;;;;;;;10.90;7.57;;;2.20;99.90;;;-141.84;68.73;18980.66;5071566;28;20236;-54
2023/03/03 09:44:37;;;;;;;13.27;7.40;;;2.20;99.90;;;-141.84;70.13;18964.41;5040835;28;20231;-55
2023/03/03 09:47:27;;;;;;;9.90;7.03;;;2.20;99.90;;;-141.84;68.32;19011.13;5071766;28;20223;-55
2023/03/03 09:50:11;;;;;;;12.43;7.37;;;2.40;99.90;;;-141.84;68.60;19000.97;5071786;28;20243;-54
2023/03/03 09:52:52;;;;;;;10.03;6.40;;;2.40;99.90;;;-141.84;68.52;19007.06;5071492;28;20232;-54
2023/03/03 09:55:37;;;;;;;8.67;6.17;;;2.40;99.90;;;-141.84;69.02;19003.00;5071540;28;20712;-57
2023/03/03 09:58:31;;;;;;;9.30;6.27;;;2.30;99.90;;;-141.84;68.25;19003.00;5071433;28;20224;-54
2023/03/03 10:01:32;;;;;;;10.70;6.60;;;2.50;99.90;;;-141.84;69.37;19013.16;5071153;28;20686;-58
2023/03/03 10:04:22;;;;;;;10.43;6.83;;;2.50;99.90;;;-141.84;67.58;18998.94;5071314;28;20237;-55
2023/03/03 10:07:12;;;;;;;12.07;7.40;;;2.60;99.90;;;-141.84;68.49;19003.00;5071367;28;20240;-52
2023/03/03 10:10:03;;;;;;;11.80;6.87;;;2.50;99.90;;;-141.84;67.99;19041.63;5071559;28;20228;-56
2023/03/03 10:12:46;;;;;;;10.67;7.03;;;2.50;99.90;;;-141.84;69.00;19035.53;5071200;28;20221;-58
2023/03/03 10:15:38;;;;;;;11.63;7.03;;;2.40;99.90;;;-141.84;69.73;18998.94;5071456;28;20228;-57
2023/03/03 10:18:23;;;;;;;11.17;6.37;;;2.40;99.90;;;-141.84;69.50;19009.09;5071306;28;20249;-58
2023/03/03 10:21:08;;;;;;;12.47;7.37;;;2.60;99.90;;;-141.84;69.71;19021.31;5071064;28;20261;-59
2023/03/03 10:23:53;;;;;;;13.37;7.60;;;2.70;99.90;;;-141.84;69.56;19033.50;5071524;28;20635;-59
2023/03/03 10:26:53;;;;;;;12.97;8.10;;;2.70;99.90;;;-141.84;69.07;19027.41;5071886;28;20210;-57
2023/03/03 10:29:48;;;;;;;14.63;7.47;;;2.70;99.90;;;-141.84;69.43;19019.28;5071271;28;20264;-57